Time;durP1;ratioP1;P1;durP2;ratioP2;P2;SDS_P1;SDS_P2;PMS_P1;PMS_P2;Temp;Humidity;BMP_temperature;BMP_pressure;BME280_temperature;BME280_humidity;BME280_pressure;Samples;Min_cycle;Max_cycle;Signal;HPM_P1;HPM_P2
2022/12/10 00:05:10;;;;;;;42.20;27.98;;;;;;;-0.06;100.00;97397.91;15308438;19;20010;-83
2022/12/10 00:10:35;;;;;;;40.72;28.20;;;;;;;-0.06;100.00;97392.63;15303513;19;20015;-81
2022/12/10 00:16:02;;;;;;;42.95;28.52;;;;;;;-0.05;100.00;97396.97;15307507;19;20018;-82
2022/12/10 00:21:30;;;;;;;42.55;28.77;;;;;;;-0.07;100.00;97401.56;15301152;19;20807;-82
2022/12/10 00:26:54;;;;;;;44.25;28.70;;;;;;;-0.08;100.00;97409.59;15306592;19;20015;-82
2022/12/10 00:32:22;;;;;;;55.22;30.08;;;;;;;-0.10;100.00;97409.72;15299114;19;20109;-81
2022/12/10 00:37:46;;;;;;;50.65;30.70;;;;;;;-0.11;100.00;97416.00;15305436;19;20617;-81
2022/12/10 00:43:11;;;;;;;61.60;30.35;;;;;;;-0.14;100.00;97418.88;15300920;19;20017;-80
2022/12/10 00:48:39;;;;;;;63.75;30.63;;;;;;;-0.17;100.00;97424.38;15298270;19;20110;-80
2022/12/10 00:54:04;;;;;;;85.07;31.85;;;;;;;-0.21;100.00;97428.25;15298026;19;20015;-80
2022/12/10 00:59:29;;;;;;;65.88;31.40;;;;;;;-0.20;100.00;97433.41;15303097;19;20049;-80
2022/12/10 01:04:57;;;;;;;72.53;33.65;;;;;;;-0.23;100.00;97432.81;15303201;19;20606;-82
2022/12/10 01:10:23;;;;;;;67.97;31.90;;;;;;;-0.26;100.00;97427.75;15300042;19;20618;-81
2022/12/10 01:15:48;;;;;;;210.48;31.95;;;;;;;-0.34;100.00;97431.84;15299895;19;20014;-82
2022/12/10 01:21:17;;;;;;;88.90;31.67;;;;;;;-0.36;100.00;97425.81;15301028;19;20027;-82
2022/12/10 01:26:42;;;;;;;83.43;31.08;;;;;;;-0.36;100.00;97433.75;15299354;19;20074;-82
2022/12/10 01:32:07;;;;;;;98.50;33.20;;;;;;;-0.39;100.00;97447.22;15300007;19;20018;-82
2022/12/10 01:37:35;;;;;;;78.50;29.90;;;;;;;-0.42;100.00;97447.47;15304756;19;20013;-82
2022/12/10 01:42:59;;;;;;;67.40;30.98;;;;;;;-0.48;100.00;97446.13;15301125;19;20015;-82
2022/12/10 01:48:24;;;;;;;70.60;33.58;;;;;;;-0.48;100.00;97451.41;15301687;19;20022;-84
2022/12/10 01:53:53;;;;;;;67.80;30.80;;;;;;;-0.51;100.00;97451.63;15308829;19;20017;-82
2022/12/10 01:59:18;;;;;;;62.60;31.65;;;;;;;-0.52;100.00;97449.94;15304869;19;20031;-82
2022/12/10 02:04:59;;;;;;;57.78;31.75;;;;;;;-0.60;100.00;97456.78;15329147;19;20018;-84
2022/12/10 02:10:40;;;;;;;58.08;32.35;;;;;;;-0.67;100.00;97465.19;15317570;19;20014;-80
2022/12/10 02:16:13;;;;;;;63.30;33.22;;;;;;;-0.68;100.00;97455.56;15300414;19;20015;-80
2022/12/10 02:21:43;;;;;;;61.05;34.03;;;;;;;-0.70;100.00;97449.53;15296293;19;20011;-80
2022/12/10 02:27:17;;;;;;;58.93;32.77;;;;;;;-0.70;100.00;97460.13;15296521;19;20021;-80
2022/12/10 02:32:48;;;;;;;55.33;32.20;;;;;;;-0.68;100.00;97457.34;15293728;19;20007;-80
2022/12/10 02:38:18;;;;;;;58.25;32.42;;;;;;;-0.70;100.00;97448.66;15295898;19;20022;-81
2022/12/10 02:43:47;;;;;;;56.63;32.17;;;;;;;-0.73;100.00;97449.75;15295516;19;20026;-80
2022/12/10 02:49:17;;;;;;;58.90;32.05;;;;;;;-0.75;100.00;97454.31;15303393;19;20015;-81
2022/12/10 02:54:49;;;;;;;53.95;32.42;;;;;;;-0.75;100.00;97456.94;15335157;19;20014;-80
2022/12/10 03:00:16;;;;;;;55.38;31.58;;;;;;;-0.74;100.00;97463.09;15303496;19;20014;-80
2022/12/10 03:05:58;;;;;;;49.85;31.27;;;;;;;-0.73;100.00;97468.25;15299072;19;20555;-81
2022/12/10 03:11:24;;;;;;;54.83;30.63;;;;;;;-0.73;100.00;97473.56;15295524;19;20026;-82
2022/12/10 03:16:54;;;;;;;53.72;28.45;;;;;;;-0.74;100.00;97463.94;15295685;19;20035;-82
2022/12/10 03:22:24;;;;;;;46.17;27.38;;;;;;;-0.78;100.00;97471.25;15291011;19;20018;-81
2022/12/10 03:27:53;;;;;;;41.38;25.70;;;;;;;-0.78;100.00;97468.59;15298060;19;20010;-80
2022/12/10 03:33:18;;;;;;;41.85;27.08;;;;;;;-0.77;100.00;97472.13;15292242;19;20023;-81
2022/12/10 03:38:52;;;;;;;37.97;24.85;;;;;;;-0.79;100.00;97464.28;15306787;19;20591;-81
2022/12/10 03:44:16;;;;;;;37.53;24.08;;;;;;;-0.77;100.00;97466.81;15306058;19;20014;-80
2022/12/10 03:49:44;;;;;;;36.85;24.48;;;;;;;-0.77;100.00;97461.53;15309940;19;20484;-80
2022/12/10 03:55:11;;;;;;;33.47;22.92;;;;;;;-0.78;100.00;97458.03;15313453;19;20006;-81
2022/12/10 04:00:36;;;;;;;35.03;23.73;;;;;;;-0.76;100.00;97457.06;15308692;19;20035;-80
2022/12/10 04:06:00;;;;;;;31.80;22.55;;;;;;;-0.76;100.00;97451.78;15308237;19;20019;-80
2022/12/10 04:11:28;;;;;;;28.35;21.23;;;;;;;-0.76;100.00;97455.25;15306104;19;20490;-80
2022/12/10 04:16:53;;;;;;;31.95;22.17;;;;;;;-0.77;100.00;97448.31;15312993;19;20010;-80
2022/12/10 04:27:57;;;;;;;24.45;18.77;;;;;;;-0.78;100.00;97434.22;15309270;19;20014;-80
2022/12/10 04:33:23;;;;;;;25.45;20.15;;;;;;;-0.78;100.00;97428.13;15311493;19;20081;-82
2022/12/10 04:38:48;;;;;;;26.02;19.58;;;;;;;-0.77;100.00;97435.09;15308855;19;20003;-82
2022/12/10 04:44:16;;;;;;;25.00;19.45;;;;;;;-0.81;100.00;97423.88;15307671;19;20054;-82
2022/12/10 04:49:45;;;;;;;30.40;21.25;;;;;;;-0.79;100.00;97421.13;15309549;19;20010;-81
2022/12/10 04:55:11;;;;;;;30.75;22.48;;;;;;;-0.83;100.00;97424.94;15314064;19;20843;-82
2022/12/10 05:00:38;;;;;;;36.28;24.30;;;;;;;-0.84;100.00;97423.25;15312563;19;20036;-83
2022/12/10 05:06:04;;;;;;;34.00;24.05;;;;;;;-0.85;100.00;97429.50;15314730;19;20010;-82
2022/12/10 05:11:37;;;;;;;33.97;23.10;;;;;;;-0.89;100.00;97428.06;15324641;19;20017;-81
2022/12/10 05:17:06;;;;;;;30.65;21.70;;;;;;;-0.88;100.00;97429.75;15328948;19;20033;-81
2022/12/10 05:28:08;;;;;;;30.80;21.67;;;;;;;-0.91;100.00;97443.19;15301956;19;20021;-80
2022/12/10 05:33:35;;;;;;;31.85;21.90;;;;;;;-0.94;100.00;97442.47;15307635;19;20078;-81
2022/12/10 05:39:01;;;;;;;30.50;22.15;;;;;;;-0.94;100.00;97452.19;15299934;19;20814;-82
2022/12/10 05:44:26;;;;;;;31.88;22.17;;;;;;;-0.94;100.00;97455.69;15298571;19;20580;-81
2022/12/10 05:49:55;;;;;;;37.28;24.25;;;;;;;-0.97;100.00;97458.53;15301415;19;20013;-81
2022/12/10 05:55:20;;;;;;;37.13;24.77;;;;;;;-1.01;100.00;97459.75;15303744;19;20006;-82
2022/12/10 06:00:45;;;;;;;37.42;24.67;;;;;;;-1.04;100.00;97469.66;15299619;19;20365;-80
2022/12/10 06:06:13;;;;;;;38.92;24.70;;;;;;;-1.06;100.00;97480.38;15305091;19;20035;-80
2022/12/10 06:11:38;;;;;;;43.20;27.20;;;;;;;-1.09;100.00;97476.16;15308468;19;20367;-81
2022/12/10 06:17:03;;;;;;;40.30;25.92;;;;;;;-1.15;100.00;97481.03;15301545;19;20562;-80
2022/12/10 06:22:31;;;;;;;41.53;25.02;;;;;;;-1.21;100.00;97494.69;15299073;19;20094;-80
2022/12/10 06:27:55;;;;;;;42.58;27.02;;;;;;;-1.20;100.00;97497.22;15298019;19;20417;-81
2022/12/10 06:33:20;;;;;;;40.75;26.10;;;;;;;-1.20;100.00;97501.66;15303638;19;20468;-82
2022/12/10 06:38:52;;;;;;;42.55;26.67;;;;;;;-1.19;100.00;97511.28;15329827;19;20022;-82
2022/12/10 06:44:18;;;;;;;40.33;26.30;;;;;;;-1.17;100.00;97517.31;15315081;19;20490;-82
2022/12/10 06:49:43;;;;;;;40.28;26.58;;;;;;;-1.17;100.00;97514.66;15302525;19;20022;-82
2022/12/10 06:55:12;;;;;;;39.95;25.50;;;;;;;-1.20;100.00;97517.53;15308716;19;20011;-81
2022/12/10 07:00:36;;;;;;;36.42;25.02;;;;;;;-1.27;100.00;97525.03;15295039;19;20086;-82
2022/12/10 07:06:03;;;;;;;38.03;24.58;;;;;;;-1.26;100.00;97532.88;15295168;19;20031;-81
2022/12/10 07:11:33;;;;;;;33.10;23.45;;;;;;;-1.26;100.00;97532.00;15295207;19;20873;-84
2022/12/10 07:16:59;;;;;;;34.95;23.58;;;;;;;-1.26;100.00;97535.53;15298551;19;20074;-82
2022/12/10 07:22:23;;;;;;;33.67;24.10;;;;;;;-1.25;100.00;97523.13;15290902;19;20354;-83
2022/12/10 07:27:51;;;;;;;28.30;21.75;;;;;;;-1.23;100.00;97533.63;15294680;19;20018;-81
2022/12/10 07:33:15;;;;;;;25.05;18.90;;;;;;;-1.25;100.00;97531.94;15296065;19;20011;-81
2022/12/10 07:38:41;;;;;;;26.02;19.13;;;;;;;-1.22;100.00;97525.56;15293965;19;20014;-82
2022/12/10 07:44:09;;;;;;;23.55;18.95;;;;;;;-1.21;100.00;97529.03;15293518;19;21355;-80
2022/12/10 07:49:34;;;;;;;21.15;17.33;;;;;;;-1.21;100.00;97531.69;15299446;19;21576;-83
2022/12/10 07:55:00;;;;;;;17.45;14.77;;;;;;;-1.23;100.00;97528.34;15292896;19;20015;-82
2022/12/10 08:00:28;;;;;;;17.60;14.25;;;;;;;-1.22;100.00;97535.28;15298746;19;20018;-83
2022/12/10 08:05:53;;;;;;;20.95;16.70;;;;;;;-1.26;100.00;97538.16;15299738;19;20011;-84
2022/12/10 08:11:19;;;;;;;20.15;15.85;;;;;;;-1.27;100.00;97533.81;15304453;19;20021;-84
2022/12/10 08:16:46;;;;;;;19.88;16.23;;;;;;;-1.27;100.00;97533.81;15316642;19;20031;-85
2022/12/10 08:22:11;;;;;;;19.02;15.70;;;;;;;-1.27;100.00;97539.09;15339462;19;20345;-81
2022/12/10 08:27:36;;;;;;;18.90;16.05;;;;;;;-1.28;100.00;97531.28;15312249;19;20027;-84
2022/12/10 08:33:04;;;;;;;20.25;15.90;;;;;;;-1.30;100.00;97534.03;15311696;19;20251;-83
2022/12/10 08:38:32;;;;;;;21.42;16.90;;;;;;;-1.30;100.00;97536.69;15307392;19;20002;-86
2022/12/10 08:43:57;;;;;;;20.58;16.40;;;;;;;-1.30;100.00;97544.59;15312068;19;20023;-85
2022/12/10 08:49:25;;;;;;;17.77;15.02;;;;;;;-1.33;100.00;97543.97;15309120;19;20018;-83
2022/12/10 08:54:50;;;;;;;18.33;14.98;;;;;;;-1.34;100.00;97537.84;15307431;19;20390;-82
2022/12/10 09:00:18;;;;;;;18.73;15.75;;;;;;;-1.31;100.00;97542.91;15302706;19;20054;-85
2022/12/10 09:11:12;;;;;;;27.90;21.15;;;;;;;-1.33;100.00;97563.31;15311798;19;20785;-82
2022/12/10 09:16:42;;;;;;;25.05;18.30;;;;;;;-1.32;100.00;97561.53;15319889;19;20015;-83
2022/12/10 09:22:16;;;;;;;18.48;14.60;;;;;;;-1.30;100.00;97565.75;15311132;19;20497;-82
2022/12/10 09:27:42;;;;;;;17.45;14.55;;;;;;;-1.25;100.00;97571.56;15317310;19;20021;-83
2022/12/10 09:33:12;;;;;;;12.95;11.55;;;;;;;-1.23;100.00;97570.63;15318508;19;20118;-83
2022/12/10 09:38:34;;;;;;;13.02;11.63;;;;;;;-1.16;100.00;97556.00;15307527;19;20453;-83
2022/12/10 09:44:06;;;;;;;13.45;10.90;;;;;;;-1.12;100.00;97553.03;15306903;19;20018;-82
2022/12/10 09:49:44;;;;;;;15.40;12.38;;;;;;;-1.15;100.00;97550.59;15297576;19;20043;-84
2022/12/10 09:55:17;;;;;;;15.40;13.30;;;;;;;-1.15;100.00;97553.25;15306856;19;20011;-81
2022/12/10 10:00:45;;;;;;;16.75;14.68;;;;;;;-1.11;100.00;97554.72;15301977;19;20035;-81
2022/12/10 10:06:14;;;;;;;19.17;15.93;;;;;;;-1.18;100.00;97555.25;15311445;19;20039;-83
2022/12/10 10:11:43;;;;;;;25.73;19.65;;;;;;;-1.21;100.00;97560.75;15320192;19;20020;-84
2022/12/10 10:17:15;;;;;;;23.25;18.27;;;;;;;-1.20;100.00;97557.16;15301733;19;20021;-82
2022/12/10 10:22:45;;;;;;;23.13;18.45;;;;;;;-1.22;100.00;97559.91;15321905;19;20010;-83
2022/12/10 10:28:20;;;;;;;17.98;15.15;;;;;;;-1.23;100.00;97560.03;15305786;19;20093;-83
2022/12/10 10:33:58;;;;;;;13.73;12.23;;;;;;;-1.21;100.00;97558.13;15299694;19;20086;-83
2022/12/10 10:39:30;;;;;;;18.58;16.58;;;;;;;-1.20;100.00;97565.09;15300396;19;20039;-82
2022/12/10 10:44:57;;;;;;;18.58;16.10;;;;;;;-1.23;100.00;97554.75;15303697;19;20606;-83
2022/12/10 10:50:27;;;;;;;19.45;16.75;;;;;;;-1.33;100.00;97558.03;15302846;19;20014;-83
2022/12/10 10:55:52;;;;;;;19.63;17.10;;;;;;;-1.32;100.00;97554.44;15291679;19;20875;-83
2022/12/10 11:01:20;;;;;;;21.40;17.20;;;;;;;-1.38;100.00;97552.25;15294954;19;20076;-81
2022/12/10 11:06:45;;;;;;;16.60;14.80;;;;;;;-1.38;100.00;97551.38;15288361;19;20065;-80
2022/12/10 11:12:31;;;;;;;19.17;16.20;;;;;;;-1.43;100.00;97552.56;15291424;19;20020;-83
2022/12/10 11:17:59;;;;;;;22.90;18.30;;;;;;;-1.45;100.00;97550.97;15297770;19;20085;-83
2022/12/10 11:23:30;;;;;;;22.17;17.83;;;;;;;-1.47;100.00;97558.16;15300442;19;20013;-81
2022/12/10 11:29:06;;;;;;;27.77;21.33;;;;;;;-1.48;100.00;97565.22;15334009;19;20110;-82
2022/12/10 11:34:46;;;;;;;28.35;21.30;;;;;;;-1.50;100.00;97574.22;15306374;19;20010;-82
2022/12/10 11:40:23;;;;;;;25.65;20.10;;;;;;;-1.60;100.00;97574.88;15298757;19;20630;-82
2022/12/10 11:51:41;;;;;;;36.65;24.67;;;;;;;-1.61;100.00;97572.31;15289555;19;19994;-82
2022/12/10 11:57:11;;;;;;;31.20;22.08;;;;;;;-1.64;100.00;97581.31;15291778;19;20018;-82
2022/12/10 12:03:09;;;;;;;27.10;20.17;;;;;;;-1.68;100.00;97577.16;15300594;19;20006;-83
2022/12/10 12:08:47;;;;;;;27.85;20.65;;;;;;;-1.73;100.00;97579.31;15305391;19;20809;-83
2022/12/10 12:14:23;;;;;;;26.38;19.50;;;;;;;-1.63;100.00;97580.34;15306477;19;20018;-82
2022/12/10 12:19:53;;;;;;;20.38;16.08;;;;;;;-1.63;100.00;97583.00;15308919;19;20577;-81
2022/12/10 12:25:30;;;;;;;17.00;13.75;;;;;;;-1.59;100.00;97581.81;15311120;19;20081;-81
2022/12/10 12:31:02;;;;;;;16.27;13.82;;;;;;;-1.59;100.00;97579.16;15310454;19;20010;-83
2022/12/10 12:36:31;;;;;;;15.77;12.88;;;;;;;-1.56;100.00;97586.06;15310984;19;20018;-82
2022/12/10 12:42:09;;;;;;;14.90;12.80;;;;;;;-1.55;100.00;97580.66;15307710;19;20020;-82
2022/12/10 12:47:50;;;;;;;14.18;12.13;;;;;;;-1.51;100.00;97588.38;15317516;19;20019;-80
2022/12/10 12:53:25;;;;;;;11.90;10.70;;;;;;;-1.56;100.00;97586.91;15316107;19;20070;-81
2022/12/10 12:59:05;;;;;;;13.65;11.93;;;;;;;-1.49;100.00;97583.84;15311265;19;20010;-81
2022/12/10 13:04:38;;;;;;;12.00;10.65;;;;;;;-1.48;100.00;97581.09;15306877;19;20086;-80
2022/12/10 13:10:28;;;;;;;12.02;10.77;;;;;;;-1.47;100.00;97581.94;15311225;19;20006;-82
2022/12/10 13:15:56;;;;;;;12.07;10.77;;;;;;;-1.45;100.00;97580.03;15315694;19;20014;-81
2022/12/10 13:21:37;;;;;;;13.13;11.60;;;;;;;-1.49;100.00;97587.31;15309780;19;20015;-82
2022/12/10 13:27:23;;;;;;;11.23;10.02;;;;;;;-1.51;100.00;97577.81;15332360;19;20460;-82
2022/12/10 13:32:56;;;;;;;13.05;11.45;;;;;;;-1.52;100.00;97598.09;15327692;19;20018;-82
2022/12/10 13:38:32;;;;;;;11.38;10.18;;;;;;;-1.59;100.00;97587.09;15323892;19;20027;-84
2022/12/10 13:49:54;;;;;;;13.43;11.90;;;;;;;-1.55;100.00;97598.31;15322941;19;20010;-82
2022/12/10 13:55:27;;;;;;;18.98;15.90;;;;;;;-1.57;100.00;97603.69;15315146;19;20025;-82
2022/12/10 14:01:02;;;;;;;15.63;13.23;;;;;;;-1.57;100.00;97611.63;15313969;19;20505;-81
2022/12/10 14:06:37;;;;;;;17.65;14.63;;;;;;;-1.61;100.00;97622.50;15312387;19;20422;-81
2022/12/10 14:12:06;;;;;;;14.43;12.30;;;;;;;-1.65;100.00;97629.78;15311131;19;20007;-82
2022/12/10 14:17:35;;;;;;;17.33;14.23;;;;;;;-1.61;100.00;97631.28;15315270;19;20351;-82
2022/12/10 14:28:43;;;;;;;19.23;15.85;;;;;;;-1.64;100.00;97628.84;15309759;19;20018;-81
2022/12/10 14:34:12;;;;;;;21.95;17.48;;;;;;;-1.64;100.00;97634.13;15312620;19;20021;-82
2022/12/10 14:39:42;;;;;;;21.73;17.00;;;;;;;-1.68;100.00;97635.28;15338934;19;20018;-81
2022/12/10 14:45:11;;;;;;;21.30;16.17;;;;;;;-1.69;100.00;97638.84;15341821;19;20011;-81
2022/12/10 14:50:35;;;;;;;19.30;15.05;;;;;;;-1.75;100.00;97639.28;15311296;19;20821;-83
2022/12/10 14:56:06;;;;;;;17.48;14.15;;;;;;;-1.77;100.00;97638.53;15308954;19;20010;-85
2022/12/10 15:01:33;;;;;;;18.05;14.48;;;;;;;-1.72;100.00;97641.72;15313553;19;20024;-84
2022/12/10 15:07:00;;;;;;;19.33;14.80;;;;;;;-1.70;100.00;97650.38;15313558;19;20031;-83
2022/12/10 15:12:34;;;;;;;23.20;17.20;;;;;;;-1.69;100.00;97649.41;15311246;19;20019;-83
2022/12/10 15:18:12;;;;;;;21.58;16.40;;;;;;;-1.68;100.00;97656.41;15328346;19;20018;-84
2022/12/10 15:23:40;;;;;;;15.98;13.50;;;;;;;-1.69;100.00;97654.69;15307745;19;20018;-83
2022/12/10 15:29:40;;;;;;;19.00;15.20;;;;;;;-1.72;100.00;97652.28;15306377;19;20014;-82
2022/12/10 15:35:09;;;;;;;19.73;15.40;;;;;;;-1.68;100.00;97656.41;15317077;19;20085;-81
2022/12/10 15:40:38;;;;;;;20.77;16.50;;;;;;;-1.67;100.00;97666.00;15314492;19;20097;-82
2022/12/10 15:46:07;;;;;;;18.92;15.48;;;;;;;-1.66;100.00;97672.16;15318014;19;20011;-81
2022/12/10 15:51:33;;;;;;;21.33;16.55;;;;;;;-1.63;100.00;97680.72;15314857;19;20051;-82
2022/12/10 15:56:57;;;;;;;18.45;15.30;;;;;;;-1.65;100.00;97682.59;15311860;19;20342;-82
2022/12/10 16:02:36;;;;;;;18.85;15.27;;;;;;;-1.59;100.00;97694.56;15302743;19;20021;-81
2022/12/10 16:08:07;;;;;;;19.30;15.73;;;;;;;-1.63;100.00;97701.84;15305944;19;20021;-81
2022/12/10 16:13:36;;;;;;;22.17;16.63;;;;;;;-1.61;100.00;97709.66;15312872;19;20022;-82
2022/12/10 16:19:11;;;;;;;21.00;16.38;;;;;;;-1.61;100.00;97710.53;15335936;19;20027;-82
2022/12/10 16:24:37;;;;;;;21.08;16.60;;;;;;;-1.61;100.00;97710.53;15328502;19;20025;-82
2022/12/10 16:30:02;;;;;;;19.63;16.10;;;;;;;-1.60;100.00;97703.44;15322254;19;20010;-82
2022/12/10 16:35:30;;;;;;;20.52;16.70;;;;;;;-1.61;100.00;97699.94;15320646;19;20035;-81
2022/12/10 16:40:55;;;;;;;21.13;16.98;;;;;;;-1.63;100.00;97695.69;15313914;19;20022;-81
2022/12/10 16:46:21;;;;;;;23.38;17.58;;;;;;;-1.63;100.00;97696.56;15317152;19;20043;-83
2022/12/10 16:51:48;;;;;;;23.27;17.45;;;;;;;-1.63;100.00;97704.47;15318619;19;20436;-84
2022/12/10 16:57:17;;;;;;;22.85;17.25;;;;;;;-1.63;100.00;97699.19;15321949;19;20031;-81
2022/12/10 17:02:42;;;;;;;22.90;17.83;;;;;;;-1.65;100.00;97694.97;15318434;19;20014;-81
2022/12/10 17:08:09;;;;;;;22.90;17.67;;;;;;;-1.69;100.00;97696.97;15321008;19;20035;-81
2022/12/10 17:13:35;;;;;;;21.50;17.13;;;;;;;-1.74;100.00;97697.25;15326196;19;20364;-81
2022/12/10 17:19:00;;;;;;;22.73;17.80;;;;;;;-1.71;100.00;97709.44;15307634;19;20051;-79
2022/12/10 17:24:27;;;;;;;19.08;15.45;;;;;;;-1.79;100.00;97702.03;15317276;19;20088;-83
2022/12/10 17:29:56;;;;;;;21.10;16.40;;;;;;;-1.73;100.00;97706.88;15307562;19;20094;-82
2022/12/10 17:35:21;;;;;;;21.05;16.55;;;;;;;-1.77;100.00;97705.41;15304532;19;20036;-82
2022/12/10 17:40:49;;;;;;;22.40;17.35;;;;;;;-1.71;100.00;97709.44;15305632;19;20015;-82
2022/12/10 17:46:15;;;;;;;21.83;17.48;;;;;;;-1.73;100.00;97716.63;15321825;19;20018;-80
2022/12/10 17:51:40;;;;;;;19.17;15.35;;;;;;;-1.75;100.00;97723.78;15350814;19;20053;-79
2022/12/10 17:57:14;;;;;;;19.95;16.10;;;;;;;-1.74;100.00;97720.19;15316565;19;20057;-82
2022/12/10 18:02:39;;;;;;;31.00;21.08;;;;;;;-1.77;100.00;97726.53;15311449;19;20006;-81
2022/12/10 18:08:03;;;;;;;22.42;16.42;;;;;;;-1.79;100.00;97733.72;15306645;19;20098;-82
2022/12/10 18:13:31;;;;;;;18.50;15.35;;;;;;;-1.80;100.00;97737.28;15322203;19;20010;-82
2022/12/10 18:18:56;;;;;;;21.30;15.50;;;;;;;-1.92;100.00;97728.38;15318631;19;20061;-82
2022/12/10 18:24:23;;;;;;;19.42;14.98;;;;;;;-1.96;100.00;97740.09;15316485;19;20018;-82
2022/12/10 18:29:50;;;;;;;21.30;15.43;;;;;;;-1.97;100.00;97734.88;15313228;19;20024;-82
2022/12/10 18:35:18;;;;;;;20.42;15.23;;;;;;;-1.98;100.00;97741.97;15315152;19;20018;-83
2022/12/10 18:40:42;;;;;;;19.92;15.55;;;;;;;-1.97;100.00;97746.31;15315133;19;20054;-83
2022/12/10 18:46:11;;;;;;;20.88;16.00;;;;;;;-1.98;100.00;97741.97;15314844;19;20017;-82
2022/12/10 18:51:35;;;;;;;20.27;15.63;;;;;;;-2.04;100.00;97745.84;15311427;19;20017;-84
2022/12/10 18:57:00;;;;;;;22.25;17.35;;;;;;;-1.98;100.00;97749.03;15315026;19;20464;-82
2022/12/10 19:02:47;;;;;;;24.80;18.80;;;;;;;-2.00;100.00;97759.69;15312134;19;20014;-82
2022/12/10 19:08:13;;;;;;;24.05;18.00;;;;;;;-2.02;100.00;97759.81;15303492;19;20015;-82
2022/12/10 19:13:38;;;;;;;25.90;18.63;;;;;;;-2.03;100.00;97757.25;15314516;19;20062;-83
2022/12/10 19:19:06;;;;;;;27.20;19.73;;;;;;;-2.01;100.00;97758.00;15312074;19;20500;-82
2022/12/10 19:24:31;;;;;;;29.00;20.65;;;;;;;-2.04;100.00;97756.41;15312451;19;20012;-82
2022/12/10 19:29:56;;;;;;;31.30;21.67;;;;;;;-2.01;100.00;97768.56;15314305;19;20018;-83
2022/12/10 19:35:27;;;;;;;35.15;23.65;;;;;;;-2.01;100.00;97765.94;15312015;19;20026;-82
2022/12/10 19:40:52;;;;;;;32.05;23.20;;;;;;;-2.02;100.00;97774.78;15305286;19;20044;-82
2022/12/10 19:46:19;;;;;;;33.97;23.35;;;;;;;-1.97;100.00;97766.56;15301743;19;20014;-83
2022/12/10 19:51:47;;;;;;;35.33;25.50;;;;;;;-1.95;100.00;97768.19;15284629;19;20036;-82
2022/12/10 19:57:14;;;;;;;25.67;18.85;;;;;;;-1.97;100.00;97771.84;15309567;19;20032;-82
2022/12/10 20:02:39;;;;;;;24.40;18.98;;;;;;;-1.98;100.00;97764.88;15312620;19;20021;-81
2022/12/10 20:08:08;;;;;;;22.67;18.10;;;;;;;-1.99;100.00;97771.09;15300257;19;20094;-84
2022/12/10 20:13:32;;;;;;;21.20;17.20;;;;;;;-2.09;100.00;97757.66;15308679;19;20018;-83
2022/12/10 20:18:57;;;;;;;22.30;17.88;;;;;;;-2.09;100.00;97763.78;15304154;19;20409;-82
2022/12/10 20:24:25;;;;;;;22.00;17.65;;;;;;;-2.06;100.00;97762.75;15320692;19;20026;-82
2022/12/10 20:29:50;;;;;;;24.05;19.00;;;;;;;-2.05;100.00;97769.69;15315111;19;20105;-82
2022/12/10 20:35:25;;;;;;;22.88;17.98;;;;;;;-2.11;100.00;97755.09;15344787;19;20014;-82
2022/12/10 20:40:53;;;;;;;23.02;18.58;;;;;;;-2.14;100.00;97757.09;15321010;19;20032;-82
2022/12/10 20:46:23;;;;;;;23.92;19.02;;;;;;;-2.19;100.00;97760.03;15318901;19;20371;-82
2022/12/10 20:51:48;;;;;;;24.30;18.98;;;;;;;-2.20;100.00;97760.97;15317452;19;20044;-82
2022/12/10 20:57:15;;;;;;;23.70;18.98;;;;;;;-2.19;100.00;97762.66;15321385;19;20022;-82
2022/12/10 21:02:39;;;;;;;23.90;19.33;;;;;;;-2.22;100.00;97761.06;15358961;19;20527;-81
2022/12/10 21:08:08;;;;;;;23.63;20.25;;;;;;;-2.29;100.00;97757.13;15314895;19;20651;-81
2022/12/10 21:13:41;;;;;;;23.17;19.92;;;;;;;-2.30;100.00;97760.72;15317977;19;20020;-85
2022/12/10 21:19:08;;;;;;;23.30;20.23;;;;;;;-2.37;100.00;97751.50;15312239;19;20023;-81
2022/12/10 21:24:33;;;;;;;24.92;21.30;;;;;;;-2.39;100.00;97754.22;15317721;19;20034;-81
2022/12/10 21:30:01;;;;;;;25.02;22.27;;;;;;;-2.48;100.00;97753.00;15310128;19;20046;-81
2022/12/10 21:35:26;;;;;;;25.92;22.67;;;;;;;-2.59;100.00;97750.19;15314103;19;20027;-81
2022/12/10 21:40:54;;;;;;;24.38;21.77;;;;;;;-2.62;100.00;97747.75;15308381;19;20446;-81
2022/12/10 21:46:21;;;;;;;24.75;22.23;;;;;;;-2.75;100.00;97738.91;15313898;19;20015;-82
2022/12/10 21:51:47;;;;;;;23.98;21.48;;;;;;;-2.79;100.00;97738.25;15308977;19;20026;-82
2022/12/10 21:57:11;;;;;;;27.70;24.52;;;;;;;-2.86;100.00;97743.03;15303664;19;20044;-82
2022/12/10 22:02:39;;;;;;;29.42;26.13;;;;;;;-2.85;100.00;97755.28;15308283;19;20049;-81
2022/12/10 22:08:04;;;;;;;27.52;24.63;;;;;;;-2.89;100.00;97751.16;15304583;19;20027;-80
2022/12/10 22:13:29;;;;;;;26.50;23.70;;;;;;;-2.93;100.00;97752.28;15305460;19;20010;-82
2022/12/10 22:18:56;;;;;;;26.17;23.38;;;;;;;-2.96;100.00;97763.00;15304077;19;20027;-81
2022/12/10 22:24:22;;;;;;;27.70;24.70;;;;;;;-3.01;100.00;97749.25;15297683;19;20017;-80
2022/12/10 22:29:47;;;;;;;29.10;25.88;;;;;;;-3.11;100.00;97747.16;15298702;19;20093;-80
2022/12/10 22:35:22;;;;;;;30.17;26.60;;;;;;;-3.13;100.00;97751.69;15299475;19;20849;-80
2022/12/10 22:40:47;;;;;;;29.77;26.58;;;;;;;-3.15;100.00;97757.97;15318943;19;20027;-80
2022/12/10 22:46:13;;;;;;;32.88;27.95;;;;;;;-3.14;100.00;97764.94;15297828;19;20015;-80
2022/12/10 22:51:41;;;;;;;26.92;23.92;;;;;;;-3.22;100.00;97760.13;15299746;19;20017;-82
2022/12/10 22:57:07;;;;;;;29.17;25.98;;;;;;;-3.23;100.00;97754.97;15295504;19;20455;-80
2022/12/10 23:02:32;;;;;;;29.25;25.25;;;;;;;-3.20;100.00;97753.00;15291787;19;20031;-81
2022/12/10 23:08:06;;;;;;;29.30;26.17;;;;;;;-3.17;100.00;97760.72;15291728;19;20018;-80
2022/12/10 23:13:31;;;;;;;26.00;23.25;;;;;;;-3.13;100.00;97756.97;15291427;19;20024;-81
2022/12/10 23:18:56;;;;;;;26.63;23.73;;;;;;;-3.17;100.00;97752.81;15288892;19;20415;-80
2022/12/10 23:24:23;;;;;;;23.50;21.08;;;;;;;-3.24;100.00;97743.59;15297883;19;20080;-80
2022/12/10 23:29:48;;;;;;;24.35;21.75;;;;;;;-3.25;100.00;97748.00;15286901;19;20044;-81
2022/12/10 23:35:13;;;;;;;22.63;20.27;;;;;;;-3.25;100.00;97737.47;15298885;19;20021;-80
2022/12/10 23:40:41;;;;;;;23.08;20.67;;;;;;;-3.25;100.00;97736.63;15298638;19;20341;-80
2022/12/10 23:46:07;;;;;;;21.40;19.10;;;;;;;-3.34;100.00;97734.53;15301580;19;20043;-81
2022/12/10 23:51:31;;;;;;;20.35;18.25;;;;;;;-3.39;100.00;97728.69;15290013;19;20025;-80
2022/12/10 23:56:58;;;;;;;20.40;18.20;;;;;;;-3.41;100.00;97724.38;15306421;19;20014;-79
